sensor_id;sensor_type;location;lat;lon;timestamp;temperature;humidity
37322;DHT22;23697;48.684;9.032;2023-03-31T00:00:32;9.80;77.60
37322;DHT22;23697;48.684;9.032;2023-03-31T00:02:59;9.80;77.60
37322;DHT22;23697;48.684;9.032;2023-03-31T00:05:32;9.80;77.60
37322;DHT22;23697;48.684;9.032;2023-03-31T00:08:03;9.80;77.60
37322;DHT22;23697;48.684;9.032;2023-03-31T00:10:30;9.80;77.80
37322;DHT22;23697;48.684;9.032;2023-03-31T00:12:58;9.70;77.80
37322;DHT22;23697;48.684;9.032;2023-03-31T00:15:24;9.70;77.70
37322;DHT22;23697;48.684;9.032;2023-03-31T00:17:51;9.70;77.90
37322;DHT22;23697;48.684;9.032;2023-03-31T00:20:18;9.70;77.90
37322;DHT22;23697;48.684;9.032;2023-03-31T00:22:45;9.70;78.00
37322;DHT22;23697;48.684;9.032;2023-03-31T00:25:13;9.60;78.30
37322;DHT22;23697;48.684;9.032;2023-03-31T00:27:40;9.70;78.10
37322;DHT22;23697;48.684;9.032;2023-03-31T00:30:08;9.70;78.10
37322;DHT22;23697;48.684;9.032;2023-03-31T00:32:35;9.70;78.10
37322;DHT22;23697;48.684;9.032;2023-03-31T00:35:03;9.80;78.00
37322;DHT22;23697;48.684;9.032;2023-03-31T00:37:29;9.70;78.20
37322;DHT22;23697;48.684;9.032;2023-03-31T00:39:58;9.80;78.20
37322;DHT22;23697;48.684;9.032;2023-03-31T00:42:26;9.80;78.10
37322;DHT22;23697;48.684;9.032;2023-03-31T00:47:38;9.90;77.90
37322;DHT22;23697;48.684;9.032;2023-03-31T00:50:09;9.80;77.70
37322;DHT22;23697;48.684;9.032;2023-03-31T00:52:40;9.90;77.90
37322;DHT22;23697;48.684;9.032;2023-03-31T00:55:07;10.00;77.50
37322;DHT22;23697;48.684;9.032;2023-03-31T00:57:36;10.00;77.40
37322;DHT22;23697;48.684;9.032;2023-03-31T01:00:06;10.10;77.30
37322;DHT22;23697;48.684;9.032;2023-03-31T01:02:38;10.00;77.30
37322;DHT22;23697;48.684;9.032;2023-03-31T01:05:05;10.10;77.00
37322;DHT22;23697;48.684;9.032;2023-03-31T01:07:34;10.10;76.90
37322;DHT22;23697;48.684;9.032;2023-03-31T01:10:03;10.10;77.00
37322;DHT22;23697;48.684;9.032;2023-03-31T01:12:30;10.10;77.30
37322;DHT22;23697;48.684;9.032;2023-03-31T01:15:00;10.00;77.20
37322;DHT22;23697;48.684;9.032;2023-03-31T01:17:28;10.00;77.80
37322;DHT22;23697;48.684;9.032;2023-03-31T01:19:58;9.90;77.50
37322;DHT22;23697;48.684;9.032;2023-03-31T01:25:39;9.90;77.20
37322;DHT22;23697;48.684;9.032;2023-03-31T01:28:13;9.90;77.60
37322;DHT22;23697;48.684;9.032;2023-03-31T01:31:01;9.90;77.30
37322;DHT22;23697;48.684;9.032;2023-03-31T01:33:39;9.90;77.30
37322;DHT22;23697;48.684;9.032;2023-03-31T01:36:16;10.00;77.20
37322;DHT22;23697;48.684;9.032;2023-03-31T01:39:00;9.90;78.00
37322;DHT22;23697;48.684;9.032;2023-03-31T01:41:39;9.90;78.70
37322;DHT22;23697;48.684;9.032;2023-03-31T01:44:12;9.90;79.70
37322;DHT22;23697;48.684;9.032;2023-03-31T01:46:44;9.80;80.00
37322;DHT22;23697;48.684;9.032;2023-03-31T01:49:15;9.80;80.20
37322;DHT22;23697;48.684;9.032;2023-03-31T01:51:44;9.80;80.70
37322;DHT22;23697;48.684;9.032;2023-03-31T01:54:14;9.70;81.20
37322;DHT22;23697;48.684;9.032;2023-03-31T01:56:46;9.70;81.20
37322;DHT22;23697;48.684;9.032;2023-03-31T01:59:14;9.70;81.00
37322;DHT22;23697;48.684;9.032;2023-03-31T02:01:44;9.70;81.40
37322;DHT22;23697;48.684;9.032;2023-03-31T02:04:13;9.70;81.90
37322;DHT22;23697;48.684;9.032;2023-03-31T02:06:44;9.60;82.00
37322;DHT22;23697;48.684;9.032;2023-03-31T02:09:13;9.60;82.10
37322;DHT22;23697;48.684;9.032;2023-03-31T02:11:40;9.60;82.40
37322;DHT22;23697;48.684;9.032;2023-03-31T02:14:09;9.60;82.60
37322;DHT22;23697;48.684;9.032;2023-03-31T02:16:38;9.60;83.10
37322;DHT22;23697;48.684;9.032;2023-03-31T02:19:06;9.60;83.20
37322;DHT22;23697;48.684;9.032;2023-03-31T02:21:35;9.60;83.20
37322;DHT22;23697;48.684;9.032;2023-03-31T02:24:04;9.50;83.60
37322;DHT22;23697;48.684;9.032;2023-03-31T02:26:33;9.40;84.00
37322;DHT22;23697;48.684;9.032;2023-03-31T02:29:01;9.40;84.20
37322;DHT22;23697;48.684;9.032;2023-03-31T02:31:31;9.30;84.40
37322;DHT22;23697;48.684;9.032;2023-03-31T02:34:02;9.20;84.60
37322;DHT22;23697;48.684;9.032;2023-03-31T02:36:28;9.20;84.70
37322;DHT22;23697;48.684;9.032;2023-03-31T02:38:56;9.20;84.70
37322;DHT22;23697;48.684;9.032;2023-03-31T02:41:24;9.10;84.80
37322;DHT22;23697;48.684;9.032;2023-03-31T02:43:51;9.10;84.70
37322;DHT22;23697;48.684;9.032;2023-03-31T02:46:17;9.10;84.80
37322;DHT22;23697;48.684;9.032;2023-03-31T02:48:46;9.10;85.00
37322;DHT22;23697;48.684;9.032;2023-03-31T02:51:24;9.00;85.20
37322;DHT22;23697;48.684;9.032;2023-03-31T02:53:57;9.00;85.20
37322;DHT22;23697;48.684;9.032;2023-03-31T02:56:33;9.00;85.20
37322;DHT22;23697;48.684;9.032;2023-03-31T02:59:09;9.00;85.30
37322;DHT22;23697;48.684;9.032;2023-03-31T03:01:49;9.00;85.30
37322;DHT22;23697;48.684;9.032;2023-03-31T03:04:27;8.90;85.20
37322;DHT22;23697;48.684;9.032;2023-03-31T03:07:01;8.80;85.20
37322;DHT22;23697;48.684;9.032;2023-03-31T03:09:32;8.80;85.30
37322;DHT22;23697;48.684;9.032;2023-03-31T03:12:04;8.70;85.40
37322;DHT22;23697;48.684;9.032;2023-03-31T03:14:33;8.70;85.40
37322;DHT22;23697;48.684;9.032;2023-03-31T03:17:03;8.60;85.50
37322;DHT22;23697;48.684;9.032;2023-03-31T03:19:32;8.60;85.50
37322;DHT22;23697;48.684;9.032;2023-03-31T03:21:59;8.50;85.50
37322;DHT22;23697;48.684;9.032;2023-03-31T03:24:26;8.40;85.60
37322;DHT22;23697;48.684;9.032;2023-03-31T03:26:54;8.30;85.70
37322;DHT22;23697;48.684;9.032;2023-03-31T03:29:21;8.30;85.90
37322;DHT22;23697;48.684;9.032;2023-03-31T03:31:47;8.40;86.10
37322;DHT22;23697;48.684;9.032;2023-03-31T03:34:14;8.40;86.20
37322;DHT22;23697;48.684;9.032;2023-03-31T03:36:44;8.40;86.30
37322;DHT22;23697;48.684;9.032;2023-03-31T03:39:11;8.40;86.40
37322;DHT22;23697;48.684;9.032;2023-03-31T03:41:37;8.40;86.40
37322;DHT22;23697;48.684;9.032;2023-03-31T03:44:04;8.40;86.50
37322;DHT22;23697;48.684;9.032;2023-03-31T03:46:32;8.50;86.50
37322;DHT22;23697;48.684;9.032;2023-03-31T03:48:58;8.50;86.50
37322;DHT22;23697;48.684;9.032;2023-03-31T03:51:25;8.50;86.50
37322;DHT22;23697;48.684;9.032;2023-03-31T03:53:53;8.50;86.50
37322;DHT22;23697;48.684;9.032;2023-03-31T03:56:20;8.50;86.50
37322;DHT22;23697;48.684;9.032;2023-03-31T03:58:47;8.40;86.50
37322;DHT22;23697;48.684;9.032;2023-03-31T04:01:13;8.40;86.50
37322;DHT22;23697;48.684;9.032;2023-03-31T04:03:40;8.30;86.60
37322;DHT22;23697;48.684;9.032;2023-03-31T04:06:07;8.20;86.60
37322;DHT22;23697;48.684;9.032;2023-03-31T04:08:34;8.10;86.70
37322;DHT22;23697;48.684;9.032;2023-03-31T04:11:02;8.10;86.80
37322;DHT22;23697;48.684;9.032;2023-03-31T04:13:29;8.00;86.90
37322;DHT22;23697;48.684;9.032;2023-03-31T04:15:56;8.00;87.00
37322;DHT22;23697;48.684;9.032;2023-03-31T04:18:22;8.10;87.10
37322;DHT22;23697;48.684;9.032;2023-03-31T04:20:49;8.00;87.10
37322;DHT22;23697;48.684;9.032;2023-03-31T04:23:19;8.10;87.20
37322;DHT22;23697;48.684;9.032;2023-03-31T04:25:48;8.10;87.30
37322;DHT22;23697;48.684;9.032;2023-03-31T04:28:16;8.10;87.40
37322;DHT22;23697;48.684;9.032;2023-03-31T04:30:44;8.10;87.40
37322;DHT22;23697;48.684;9.032;2023-03-31T04:33:11;8.10;87.40
37322;DHT22;23697;48.684;9.032;2023-03-31T04:35:39;8.10;87.50
37322;DHT22;23697;48.684;9.032;2023-03-31T04:38:17;8.10;87.50
37322;DHT22;23697;48.684;9.032;2023-03-31T04:40:44;8.10;87.50
37322;DHT22;23697;48.684;9.032;2023-03-31T04:43:11;8.10;87.60
37322;DHT22;23697;48.684;9.032;2023-03-31T04:45:39;8.10;87.60
37322;DHT22;23697;48.684;9.032;2023-03-31T04:48:06;8.20;87.50
37322;DHT22;23697;48.684;9.032;2023-03-31T04:50:33;8.20;87.60
37322;DHT22;23697;48.684;9.032;2023-03-31T04:53:00;8.30;87.50
37322;DHT22;23697;48.684;9.032;2023-03-31T04:55:27;8.30;87.50
37322;DHT22;23697;48.684;9.032;2023-03-31T04:57:54;8.30;87.40
37322;DHT22;23697;48.684;9.032;2023-03-31T05:00:21;8.40;87.40
37322;DHT22;23697;48.684;9.032;2023-03-31T05:02:49;8.30;87.30
37322;DHT22;23697;48.684;9.032;2023-03-31T05:05:17;8.40;87.40
37322;DHT22;23697;48.684;9.032;2023-03-31T05:07:44;8.40;87.40
37322;DHT22;23697;48.684;9.032;2023-03-31T05:10:10;8.50;87.40
37322;DHT22;23697;48.684;9.032;2023-03-31T05:12:37;8.50;87.60
37322;DHT22;23697;48.684;9.032;2023-03-31T05:15:04;8.50;87.60
37322;DHT22;23697;48.684;9.032;2023-03-31T05:17:31;8.50;87.60
37322;DHT22;23697;48.684;9.032;2023-03-31T05:19:59;8.50;87.60
37322;DHT22;23697;48.684;9.032;2023-03-31T05:22:26;8.50;87.60
37322;DHT22;23697;48.684;9.032;2023-03-31T05:24:53;8.60;87.80
37322;DHT22;23697;48.684;9.032;2023-03-31T05:27:20;8.50;87.80
37322;DHT22;23697;48.684;9.032;2023-03-31T05:29:46;8.50;87.90
37322;DHT22;23697;48.684;9.032;2023-03-31T05:32:13;8.50;88.00
37322;DHT22;23697;48.684;9.032;2023-03-31T05:34:40;8.40;88.00
37322;DHT22;23697;48.684;9.032;2023-03-31T05:37:08;8.50;88.10
37322;DHT22;23697;48.684;9.032;2023-03-31T05:39:35;8.40;88.20
37322;DHT22;23697;48.684;9.032;2023-03-31T05:42:02;8.40;88.30
37322;DHT22;23697;48.684;9.032;2023-03-31T05:44:30;8.40;88.30
37322;DHT22;23697;48.684;9.032;2023-03-31T05:46:57;8.40;88.40
37322;DHT22;23697;48.684;9.032;2023-03-31T05:49:23;8.40;88.50
37322;DHT22;23697;48.684;9.032;2023-03-31T05:51:50;8.40;88.60
37322;DHT22;23697;48.684;9.032;2023-03-31T05:54:19;8.40;88.70
37322;DHT22;23697;48.684;9.032;2023-03-31T05:56:45;8.40;88.70
37322;DHT22;23697;48.684;9.032;2023-03-31T05:59:12;8.40;88.80
37322;DHT22;23697;48.684;9.032;2023-03-31T06:01:39;8.40;88.90
37322;DHT22;23697;48.684;9.032;2023-03-31T06:04:06;8.30;88.90
37322;DHT22;23697;48.684;9.032;2023-03-31T06:06:32;8.40;89.00
37322;DHT22;23697;48.684;9.032;2023-03-31T06:08:59;8.40;89.10
37322;DHT22;23697;48.684;9.032;2023-03-31T06:11:27;8.40;89.10
37322;DHT22;23697;48.684;9.032;2023-03-31T06:13:54;8.50;89.20
37322;DHT22;23697;48.684;9.032;2023-03-31T06:16:20;8.50;89.20
37322;DHT22;23697;48.684;9.032;2023-03-31T06:18:47;8.40;89.20
37322;DHT22;23697;48.684;9.032;2023-03-31T06:21:16;8.50;89.30
37322;DHT22;23697;48.684;9.032;2023-03-31T06:23:43;8.60;89.30
37322;DHT22;23697;48.684;9.032;2023-03-31T06:26:11;8.50;89.30
37322;DHT22;23697;48.684;9.032;2023-03-31T06:28:39;8.60;89.40
37322;DHT22;23697;48.684;9.032;2023-03-31T06:31:06;8.60;89.40
37322;DHT22;23697;48.684;9.032;2023-03-31T06:33:33;8.50;89.40
37322;DHT22;23697;48.684;9.032;2023-03-31T06:36:00;8.50;89.40
37322;DHT22;23697;48.684;9.032;2023-03-31T06:38:29;8.50;89.50
37322;DHT22;23697;48.684;9.032;2023-03-31T06:40:56;8.40;89.50
37322;DHT22;23697;48.684;9.032;2023-03-31T06:43:23;8.40;89.60
37322;DHT22;23697;48.684;9.032;2023-03-31T06:45:52;8.50;89.60
37322;DHT22;23697;48.684;9.032;2023-03-31T06:48:19;8.50;89.70
37322;DHT22;23697;48.684;9.032;2023-03-31T06:50:46;8.50;89.70
37322;DHT22;23697;48.684;9.032;2023-03-31T06:53:12;8.50;89.80
37322;DHT22;23697;48.684;9.032;2023-03-31T06:55:39;8.40;89.80
37322;DHT22;23697;48.684;9.032;2023-03-31T06:58:09;8.50;89.90
37322;DHT22;23697;48.684;9.032;2023-03-31T07:00:37;8.50;90.00
37322;DHT22;23697;48.684;9.032;2023-03-31T07:03:05;8.50;90.10
37322;DHT22;23697;48.684;9.032;2023-03-31T07:05:33;8.50;90.10
37322;DHT22;23697;48.684;9.032;2023-03-31T07:08:00;8.60;90.20
37322;DHT22;23697;48.684;9.032;2023-03-31T07:10:27;8.70;90.20
37322;DHT22;23697;48.684;9.032;2023-03-31T07:12:54;8.70;90.20
37322;DHT22;23697;48.684;9.032;2023-03-31T07:15:21;8.60;90.20
37322;DHT22;23697;48.684;9.032;2023-03-31T07:17:48;8.60;90.10
37322;DHT22;23697;48.684;9.032;2023-03-31T07:20:19;8.60;90.10
37322;DHT22;23697;48.684;9.032;2023-03-31T07:22:47;8.70;89.90
37322;DHT22;23697;48.684;9.032;2023-03-31T07:25:14;8.60;89.70
37322;DHT22;23697;48.684;9.032;2023-03-31T07:27:41;8.70;89.60
37322;DHT22;23697;48.684;9.032;2023-03-31T07:30:08;8.60;89.50
37322;DHT22;23697;48.684;9.032;2023-03-31T07:32:35;8.70;89.20
37322;DHT22;23697;48.684;9.032;2023-03-31T07:35:04;8.80;89.10
37322;DHT22;23697;48.684;9.032;2023-03-31T07:37:34;8.90;88.70
37322;DHT22;23697;48.684;9.032;2023-03-31T07:40:01;9.20;88.60
37322;DHT22;23697;48.684;9.032;2023-03-31T07:42:29;9.40;88.40
37322;DHT22;23697;48.684;9.032;2023-03-31T07:44:56;9.60;87.80
37322;DHT22;23697;48.684;9.032;2023-03-31T07:47:22;9.50;87.30
37322;DHT22;23697;48.684;9.032;2023-03-31T07:49:49;9.60;87.40
37322;DHT22;23697;48.684;9.032;2023-03-31T07:52:16;9.90;87.30
37322;DHT22;23697;48.684;9.032;2023-03-31T07:54:45;9.80;86.70
37322;DHT22;23697;48.684;9.032;2023-03-31T07:57:12;9.80;86.50
37322;DHT22;23697;48.684;9.032;2023-03-31T07:59:39;9.90;86.50
37322;DHT22;23697;48.684;9.032;2023-03-31T08:02:05;9.90;86.40
37322;DHT22;23697;48.684;9.032;2023-03-31T08:04:32;10.10;86.80
37322;DHT22;23697;48.684;9.032;2023-03-31T08:06:59;10.50;86.30
37322;DHT22;23697;48.684;9.032;2023-03-31T08:09:25;10.90;86.30
37322;DHT22;23697;48.684;9.032;2023-03-31T08:11:53;11.10;85.50
37322;DHT22;23697;48.684;9.032;2023-03-31T08:14:20;11.50;85.20
37322;DHT22;23697;48.684;9.032;2023-03-31T08:16:46;11.70;84.20
37322;DHT22;23697;48.684;9.032;2023-03-31T08:19:13;12.00;83.40
37322;DHT22;23697;48.684;9.032;2023-03-31T08:21:40;12.10;82.40
37322;DHT22;23697;48.684;9.032;2023-03-31T08:24:07;12.10;81.40
37322;DHT22;23697;48.684;9.032;2023-03-31T08:26:33;12.50;81.90
37322;DHT22;23697;48.684;9.032;2023-03-31T08:29:01;12.60;82.00
37322;DHT22;23697;48.684;9.032;2023-03-31T08:31:28;12.70;80.20
37322;DHT22;23697;48.684;9.032;2023-03-31T08:33:55;12.90;80.10
37322;DHT22;23697;48.684;9.032;2023-03-31T08:36:23;13.00;79.30
37322;DHT22;23697;48.684;9.032;2023-03-31T08:38:50;13.10;79.10
37322;DHT22;23697;48.684;9.032;2023-03-31T08:41:25;13.20;77.30
37322;DHT22;23697;48.684;9.032;2023-03-31T08:43:53;13.40;76.50
37322;DHT22;23697;48.684;9.032;2023-03-31T08:46:22;13.50;75.90
37322;DHT22;23697;48.684;9.032;2023-03-31T08:48:51;13.40;75.20
37322;DHT22;23697;48.684;9.032;2023-03-31T08:51:20;13.30;76.40
37322;DHT22;23697;48.684;9.032;2023-03-31T08:53:49;13.30;77.90
37322;DHT22;23697;48.684;9.032;2023-03-31T08:56:19;13.40;76.20
37322;DHT22;23697;48.684;9.032;2023-03-31T08:58:48;13.70;77.60
37322;DHT22;23697;48.684;9.032;2023-03-31T09:01:18;13.60;74.90
37322;DHT22;23697;48.684;9.032;2023-03-31T09:03:54;13.60;73.60
37322;DHT22;23697;48.684;9.032;2023-03-31T09:06:30;13.30;72.90
37322;DHT22;23697;48.684;9.032;2023-03-31T09:09:00;13.30;75.70
37322;DHT22;23697;48.684;9.032;2023-03-31T09:11:29;13.10;72.70
37322;DHT22;23697;48.684;9.032;2023-03-31T09:14:01;13.30;73.90
37322;DHT22;23697;48.684;9.032;2023-03-31T09:16:31;13.10;72.60
37322;DHT22;23697;48.684;9.032;2023-03-31T09:19:00;13.10;73.10
37322;DHT22;23697;48.684;9.032;2023-03-31T09:21:28;13.50;73.90
37322;DHT22;23697;48.684;9.032;2023-03-31T09:23:57;13.60;71.80
37322;DHT22;23697;48.684;9.032;2023-03-31T09:26:29;13.70;69.60
37322;DHT22;23697;48.684;9.032;2023-03-31T09:28:58;13.90;71.00
37322;DHT22;23697;48.684;9.032;2023-03-31T09:31:25;13.70;69.60
37322;DHT22;23697;48.684;9.032;2023-03-31T09:33:54;13.30;69.10
37322;DHT22;23697;48.684;9.032;2023-03-31T09:36:28;12.90;70.20
37322;DHT22;23697;48.684;9.032;2023-03-31T09:39:00;12.70;70.50
37322;DHT22;23697;48.684;9.032;2023-03-31T09:41:27;12.80;70.50
37322;DHT22;23697;48.684;9.032;2023-03-31T09:43:54;12.80;68.40
37322;DHT22;23697;48.684;9.032;2023-03-31T09:46:23;12.90;69.50
37322;DHT22;23697;48.684;9.032;2023-03-31T09:48:53;13.00;69.20
37322;DHT22;23697;48.684;9.032;2023-03-31T09:51:22;13.00;66.80
37322;DHT22;23697;48.684;9.032;2023-03-31T09:53:52;13.10;68.10
37322;DHT22;23697;48.684;9.032;2023-03-31T09:56:31;13.10;68.30
37322;DHT22;23697;48.684;9.032;2023-03-31T09:58:59;13.30;69.40
37322;DHT22;23697;48.684;9.032;2023-03-31T10:01:26;13.70;67.80
37322;DHT22;23697;48.684;9.032;2023-03-31T10:03:54;14.10;67.90
37322;DHT22;23697;48.684;9.032;2023-03-31T10:06:22;14.10;65.20
37322;DHT22;23697;48.684;9.032;2023-03-31T10:08:50;14.10;65.20
37322;DHT22;23697;48.684;9.032;2023-03-31T10:11:18;13.80;65.10
37322;DHT22;23697;48.684;9.032;2023-03-31T10:13:46;13.90;65.10
37322;DHT22;23697;48.684;9.032;2023-03-31T10:16:19;13.90;66.30
37322;DHT22;23697;48.684;9.032;2023-03-31T10:18:46;14.30;64.50
37322;DHT22;23697;48.684;9.032;2023-03-31T10:21:23;14.60;62.50
37322;DHT22;23697;48.684;9.032;2023-03-31T10:23:50;14.40;61.60
37322;DHT22;23697;48.684;9.032;2023-03-31T10:26:20;14.60;61.60
37322;DHT22;23697;48.684;9.032;2023-03-31T10:28:47;14.80;58.00
37322;DHT22;23697;48.684;9.032;2023-03-31T10:31:17;14.60;55.80
37322;DHT22;23697;48.684;9.032;2023-03-31T10:33:45;14.40;57.00
37322;DHT22;23697;48.684;9.032;2023-03-31T10:36:14;14.60;58.20
37322;DHT22;23697;48.684;9.032;2023-03-31T10:38:43;14.80;55.90
37322;DHT22;23697;48.684;9.032;2023-03-31T10:41:10;14.80;56.10
37322;DHT22;23697;48.684;9.032;2023-03-31T10:43:39;15.10;57.10
37322;DHT22;23697;48.684;9.032;2023-03-31T10:46:06;15.30;56.80
37322;DHT22;23697;48.684;9.032;2023-03-31T10:48:34;15.20;55.30
37322;DHT22;23697;48.684;9.032;2023-03-31T10:51:04;15.10;55.20
37322;DHT22;23697;48.684;9.032;2023-03-31T10:53:38;15.10;54.30
37322;DHT22;23697;48.684;9.032;2023-03-31T10:56:08;15.10;54.50
37322;DHT22;23697;48.684;9.032;2023-03-31T10:58:46;15.00;55.00
37322;DHT22;23697;48.684;9.032;2023-03-31T11:01:19;15.00;56.70
37322;DHT22;23697;48.684;9.032;2023-03-31T11:03:53;15.00;56.90
37322;DHT22;23697;48.684;9.032;2023-03-31T11:06:24;14.70;56.60
37322;DHT22;23697;48.684;9.032;2023-03-31T11:08:55;14.60;57.10
37322;DHT22;23697;48.684;9.032;2023-03-31T11:11:28;14.30;57.50
37322;DHT22;23697;48.684;9.032;2023-03-31T11:13:59;13.90;59.70
37322;DHT22;23697;48.684;9.032;2023-03-31T11:16:30;13.40;64.50
37322;DHT22;23697;48.684;9.032;2023-03-31T11:19:02;12.70;66.80
37322;DHT22;23697;48.684;9.032;2023-03-31T11:21:33;11.40;72.80
37322;DHT22;23697;48.684;9.032;2023-03-31T11:24:02;10.10;77.20
37322;DHT22;23697;48.684;9.032;2023-03-31T11:26:31;9.60;79.30
37322;DHT22;23697;48.684;9.032;2023-03-31T11:29:05;9.10;79.70
37322;DHT22;23697;48.684;9.032;2023-03-31T11:31:36;8.90;81.30
37322;DHT22;23697;48.684;9.032;2023-03-31T11:34:15;8.90;82.00
37322;DHT22;23697;48.684;9.032;2023-03-31T11:36:56;8.80;82.30
37322;DHT22;23697;48.684;9.032;2023-03-31T11:39:32;8.80;82.60
37322;DHT22;23697;48.684;9.032;2023-03-31T11:42:04;8.80;83.20
37322;DHT22;23697;48.684;9.032;2023-03-31T11:44:37;8.80;83.00
37322;DHT22;23697;48.684;9.032;2023-03-31T11:47:07;8.90;83.60
37322;DHT22;23697;48.684;9.032;2023-03-31T11:49:36;9.00;83.30
37322;DHT22;23697;48.684;9.032;2023-03-31T11:52:05;9.20;83.20
37322;DHT22;23697;48.684;9.032;2023-03-31T11:54:35;9.60;83.90
37322;DHT22;23697;48.684;9.032;2023-03-31T11:57:05;9.90;83.50
37322;DHT22;23697;48.684;9.032;2023-03-31T11:59:35;10.40;83.50
37322;DHT22;23697;48.684;9.032;2023-03-31T12:02:08;10.80;81.40
37322;DHT22;23697;48.684;9.032;2023-03-31T12:04:57;11.10;81.70
37322;DHT22;23697;48.684;9.032;2023-03-31T12:31:42;12.30;76.60
37322;DHT22;23697;48.684;9.032;2023-03-31T12:34:26;12.60;73.40
37322;DHT22;23697;48.684;9.032;2023-03-31T12:37:07;12.70;72.70
37322;DHT22;23697;48.684;9.032;2023-03-31T12:39:42;12.60;71.70
37322;DHT22;23697;48.684;9.032;2023-03-31T12:42:14;12.70;71.80
37322;DHT22;23697;48.684;9.032;2023-03-31T12:44:52;12.90;70.00
37322;DHT22;23697;48.684;9.032;2023-03-31T12:47:32;13.10;71.90
37322;DHT22;23697;48.684;9.032;2023-03-31T12:50:08;13.10;70.00
37322;DHT22;23697;48.684;9.032;2023-03-31T12:52:40;13.10;69.90
37322;DHT22;23697;48.684;9.032;2023-03-31T12:55:25;13.30;69.70
37322;DHT22;23697;48.684;9.032;2023-03-31T12:58:05;13.60;69.30
37322;DHT22;23697;48.684;9.032;2023-03-31T13:01:00;13.70;65.40
37322;DHT22;23697;48.684;9.032;2023-03-31T13:08:59;13.40;67.00
37322;DHT22;23697;48.684;9.032;2023-03-31T13:11:35;13.10;67.00
37322;DHT22;23697;48.684;9.032;2023-03-31T13:14:03;12.60;66.80
37322;DHT22;23697;48.684;9.032;2023-03-31T13:16:33;12.40;68.40
37322;DHT22;23697;48.684;9.032;2023-03-31T13:19:00;12.20;70.30
37322;DHT22;23697;48.684;9.032;2023-03-31T13:21:27;12.10;71.60
37322;DHT22;23697;48.684;9.032;2023-03-31T13:23:57;11.90;75.30
37322;DHT22;23697;48.684;9.032;2023-03-31T13:26:36;11.60;75.00
37322;DHT22;23697;48.684;9.032;2023-03-31T13:29:09;11.40;77.20
37322;DHT22;23697;48.684;9.032;2023-03-31T13:34:22;11.10;78.90
37322;DHT22;23697;48.684;9.032;2023-03-31T13:36:53;10.70;78.40
37322;DHT22;23697;48.684;9.032;2023-03-31T13:42:16;10.00;79.70
37322;DHT22;23697;48.684;9.032;2023-03-31T13:44:53;9.70;80.60
37322;DHT22;23697;48.684;9.032;2023-03-31T13:50:34;9.10;82.40
37322;DHT22;23697;48.684;9.032;2023-03-31T13:53:04;8.80;82.90
37322;DHT22;23697;48.684;9.032;2023-03-31T13:58:29;8.70;83.90
37322;DHT22;23697;48.684;9.032;2023-03-31T14:01:20;8.60;84.40
37322;DHT22;23697;48.684;9.032;2023-03-31T14:49:46;11.90;77.50
37322;DHT22;23697;48.684;9.032;2023-03-31T15:26:33;11.30;76.90
37322;DHT22;23697;48.684;9.032;2023-03-31T15:35:23;11.10;77.20
37322;DHT22;23697;48.684;9.032;2023-03-31T15:42:17;11.10;76.30
37322;DHT22;23697;48.684;9.032;2023-03-31T15:45:22;11.10;76.70
37322;DHT22;23697;48.684;9.032;2023-03-31T15:51:35;11.10;76.30
37322;DHT22;23697;48.684;9.032;2023-03-31T16:13:26;10.70;76.30
37322;DHT22;23697;48.684;9.032;2023-03-31T16:16:44;10.60;75.60
37322;DHT22;23697;48.684;9.032;2023-03-31T16:19:41;10.60;77.30
37322;DHT22;23697;48.684;9.032;2023-03-31T16:22:21;10.40;79.40
37322;DHT22;23697;48.684;9.032;2023-03-31T16:24:52;10.30;80.10
37322;DHT22;23697;48.684;9.032;2023-03-31T16:27:24;10.00;79.80
37322;DHT22;23697;48.684;9.032;2023-03-31T16:35:40;9.50;81.10
37322;DHT22;23697;48.684;9.032;2023-03-31T16:38:09;9.30;81.20
37322;DHT22;23697;48.684;9.032;2023-03-31T16:40:36;9.20;82.80
37322;DHT22;23697;48.684;9.032;2023-03-31T16:43:07;9.00;82.70
37322;DHT22;23697;48.684;9.032;2023-03-31T16:45:34;8.90;82.90
37322;DHT22;23697;48.684;9.032;2023-03-31T16:48:06;8.80;83.10
37322;DHT22;23697;48.684;9.032;2023-03-31T18:24:53;8.20;86.10
37322;DHT22;23697;48.684;9.032;2023-03-31T18:28:20;8.20;86.00
37322;DHT22;23697;48.684;9.032;2023-03-31T18:31:42;8.20;86.00
37322;DHT22;23697;48.684;9.032;2023-03-31T18:37:47;8.10;85.80
37322;DHT22;23697;48.684;9.032;2023-03-31T18:52:32;8.00;86.20
37322;DHT22;23697;48.684;9.032;2023-03-31T18:55:25;8.00;86.20
37322;DHT22;23697;48.684;9.032;2023-03-31T19:08:02;8.00;86.40
37322;DHT22;23697;48.684;9.032;2023-03-31T19:14:02;7.90;86.40
37322;DHT22;23697;48.684;9.032;2023-03-31T19:17:26;7.90;86.50
37322;DHT22;23697;48.684;9.032;2023-03-31T19:19:45;7.90;86.40
37322;DHT22;23697;48.684;9.032;2023-03-31T19:22:46;7.90;86.40
37322;DHT22;23697;48.684;9.032;2023-03-31T19:59:38;7.80;86.50
37322;DHT22;23697;48.684;9.032;2023-03-31T20:13:24;7.90;86.10
37322;DHT22;23697;48.684;9.032;2023-03-31T20:16:06;7.90;86.30
37322;DHT22;23697;48.684;9.032;2023-03-31T20:24:42;7.90;86.80
37322;DHT22;23697;48.684;9.032;2023-03-31T20:27:11;7.90;87.00
37322;DHT22;23697;48.684;9.032;2023-03-31T20:29:56;7.90;87.00
37322;DHT22;23697;48.684;9.032;2023-03-31T20:32:57;8.00;87.10
37322;DHT22;23697;48.684;9.032;2023-03-31T20:38:45;7.90;87.10
37322;DHT22;23697;48.684;9.032;2023-03-31T20:44:38;7.80;87.20
37322;DHT22;23697;48.684;9.032;2023-03-31T20:47:30;7.80;87.20
37322;DHT22;23697;48.684;9.032;2023-03-31T21:37:41;7.70;86.90
37322;DHT22;23697;48.684;9.032;2023-03-31T21:46:36;7.70;86.80
37322;DHT22;23697;48.684;9.032;2023-03-31T21:49:19;7.80;86.60
37322;DHT22;23697;48.684;9.032;2023-03-31T21:54:53;7.70;86.60
37322;DHT22;23697;48.684;9.032;2023-03-31T21:57:22;7.70;86.80
37322;DHT22;23697;48.684;9.032;2023-03-31T21:59:57;7.70;86.90
37322;DHT22;23697;48.684;9.032;2023-03-31T22:02:38;7.70;86.90
37322;DHT22;23697;48.684;9.032;2023-03-31T22:07:51;7.60;87.10
37322;DHT22;23697;48.684;9.032;2023-03-31T22:10:19;7.50;87.20
37322;DHT22;23697;48.684;9.032;2023-03-31T22:13:22;7.50;87.20
37322;DHT22;23697;48.684;9.032;2023-03-31T22:15:52;7.50;87.30
37322;DHT22;23697;48.684;9.032;2023-03-31T22:18:21;7.40;87.40
37322;DHT22;23697;48.684;9.032;2023-03-31T22:21:14;7.40;87.30
37322;DHT22;23697;48.684;9.032;2023-03-31T22:23:54;7.40;87.40
37322;DHT22;23697;48.684;9.032;2023-03-31T22:26:24;7.50;87.40
37322;DHT22;23697;48.684;9.032;2023-03-31T22:28:54;7.40;87.40
37322;DHT22;23697;48.684;9.032;2023-03-31T22:31:23;7.30;87.40
37322;DHT22;23697;48.684;9.032;2023-03-31T22:33:50;7.40;87.40
37322;DHT22;23697;48.684;9.032;2023-03-31T22:36:22;7.30;87.40
37322;DHT22;23697;48.684;9.032;2023-03-31T22:39:10;7.30;87.40
37322;DHT22;23697;48.684;9.032;2023-03-31T22:41:46;7.30;87.50
37322;DHT22;23697;48.684;9.032;2023-03-31T22:44:13;7.20;87.50
37322;DHT22;23697;48.684;9.032;2023-03-31T22:46:54;7.20;87.60
37322;DHT22;23697;48.684;9.032;2023-03-31T22:49:24;7.20;87.60
37322;DHT22;23697;48.684;9.032;2023-03-31T22:51:52;7.10;87.80